Time;durP1;ratioP1;P1;durP2;ratioP2;P2;SDS_P1;SDS_P2;PMS_P1;PMS_P2;Temp;Humidity;BMP_temperature;BMP_pressure;BME280_temperature;BME280_humidity;BME280_pressure;Samples;Min_cycle;Max_cycle;Signal;HPM_P1;HPM_P2
2023/12/20 00:00:28;;;;;;;10.43;7.10;;;5.20;99.90;;;;;;4936371;29;20202;-77
2023/12/20 00:02:54;;;;;;;13.33;8.10;;;5.20;99.90;;;;;;4936351;29;20213;-75
2023/12/20 00:05:21;;;;;;;11.37;7.80;;;5.20;99.90;;;;;;4936321;29;20610;-76
2023/12/20 00:07:48;;;;;;;9.53;6.97;;;5.20;99.90;;;;;;4936345;29;20233;-76
2023/12/20 00:10:14;;;;;;;11.90;8.33;;;5.10;99.90;;;;;;4936423;29;20245;-77
2023/12/20 00:12:41;;;;;;;15.03;8.30;;;5.10;99.90;;;;;;4936337;29;20281;-77
2023/12/20 00:15:08;;;;;;;13.00;7.80;;;5.10;99.90;;;;;;4936126;29;20265;-78
2023/12/20 00:17:36;;;;;;;11.70;7.83;;;5.10;99.90;;;;;;4936028;29;20247;-79
2023/12/20 00:20:03;;;;;;;11.43;8.80;;;5.10;99.90;;;;;;4935997;29;20253;-79
2023/12/20 00:22:30;;;;;;;16.63;9.57;;;5.10;99.90;;;;;;4935885;29;20209;-79
2023/12/20 00:24:56;;;;;;;9.97;8.50;;;5.00;99.90;;;;;;4935850;29;20253;-82
2023/12/20 00:27:23;;;;;;;13.20;9.43;;;5.00;99.90;;;;;;4936107;29;20218;-82
2023/12/20 00:29:50;;;;;;;15.27;9.20;;;5.00;99.90;;;;;;4936233;29;20637;-83
2023/12/20 00:32:17;;;;;;;11.93;9.07;;;5.00;99.90;;;;;;4936538;29;20202;-86
2023/12/20 00:34:46;;;;;;;13.20;9.10;;;4.90;99.90;;;;;;4937183;29;20300;-87
2023/12/20 00:37:12;;;;;;;12.97;9.13;;;4.90;99.90;;;;;;4936807;29;20205;-85
2023/12/20 00:39:39;;;;;;;14.10;9.23;;;4.90;99.90;;;;;;4937329;29;20206;-85
2023/12/20 00:42:06;;;;;;;13.17;8.80;;;4.90;99.90;;;;;;4936570;29;20249;-84
2023/12/20 00:44:32;;;;;;;10.17;9.03;;;4.90;99.90;;;;;;4936154;29;20202;-83
2023/12/20 00:46:59;;;;;;;13.67;8.73;;;4.90;99.90;;;;;;4940638;29;20228;-81
2023/12/20 00:49:26;;;;;;;13.67;9.33;;;4.90;99.90;;;;;;4935836;29;20717;-80
2023/12/20 00:51:54;;;;;;;9.50;7.70;;;4.90;99.90;;;;;;4935871;29;20206;-80
2023/12/20 00:54:20;;;;;;;11.43;7.50;;;4.90;99.90;;;;;;4936088;29;20229;-79
2023/12/20 00:56:47;;;;;;;9.63;7.60;;;4.90;99.90;;;;;;4935516;29;20272;-79
2023/12/20 00:59:14;;;;;;;10.87;8.07;;;5.00;99.90;;;;;;4935486;29;20204;-78
2023/12/20 01:01:41;;;;;;;8.63;7.20;;;5.00;99.90;;;;;;4935397;29;20241;-78
2023/12/20 01:04:08;;;;;;;10.77;7.47;;;5.00;99.90;;;;;;4935639;29;20205;-77
2023/12/20 01:06:35;;;;;;;7.70;6.67;;;5.00;99.90;;;;;;4935547;29;20202;-77
2023/12/20 01:09:03;;;;;;;11.37;7.40;;;5.00;99.90;;;;;;4940791;29;20210;-77
2023/12/20 01:11:30;;;;;;;8.47;6.73;;;5.00;99.90;;;;;;4941853;29;20292;-76
2023/12/20 01:13:56;;;;;;;8.40;6.30;;;5.00;99.90;;;;;;4941567;29;20205;-77
2023/12/20 01:16:23;;;;;;;9.43;6.40;;;5.00;99.90;;;;;;4941867;29;20264;-76
2023/12/20 01:18:50;;;;;;;9.00;6.63;;;5.00;99.90;;;;;;4941818;29;20264;-77
2023/12/20 01:21:16;;;;;;;7.37;5.97;;;4.90;99.90;;;;;;4941734;29;20289;-75
2023/12/20 01:23:43;;;;;;;6.63;5.70;;;4.90;99.90;;;;;;4941770;29;20205;-75
2023/12/20 01:26:12;;;;;;;6.93;5.70;;;4.90;99.90;;;;;;4941861;29;20256;-75
2023/12/20 01:28:39;;;;;;;7.77;5.30;;;4.90;99.90;;;;;;4941585;29;20269;-76
2023/12/20 01:31:06;;;;;;;5.90;5.23;;;4.90;99.90;;;;;;4941730;29;20308;-75
2023/12/20 01:33:32;;;;;;;6.00;5.03;;;4.90;99.90;;;;;;4941777;29;20225;-76
2023/12/20 01:35:59;;;;;;;5.27;4.63;;;4.90;99.90;;;;;;4941511;29;20205;-75
2023/12/20 01:38:25;;;;;;;5.27;4.57;;;4.90;99.90;;;;;;4941642;29;20241;-75
2023/12/20 01:40:52;;;;;;;5.90;4.70;;;4.90;99.90;;;;;;4941596;29;20264;-75
2023/12/20 01:43:20;;;;;;;5.80;5.20;;;4.90;99.90;;;;;;4941303;29;20201;-75
2023/12/20 01:45:47;;;;;;;6.60;4.57;;;4.90;99.90;;;;;;4941543;29;20213;-75
2023/12/20 01:48:16;;;;;;;6.83;4.50;;;4.80;99.90;;;;;;4941385;29;20708;-75
2023/12/20 01:50:44;;;;;;;4.73;4.20;;;4.80;99.90;;;;;;4941578;29;20201;-75
2023/12/20 01:53:13;;;;;;;4.90;4.40;;;4.80;99.90;;;;;;4941413;29;20650;-74
2023/12/20 01:55:41;;;;;;;5.47;4.23;;;4.80;99.90;;;;;;4941550;29;20709;-74
2023/12/20 01:58:09;;;;;;;6.07;4.47;;;4.70;99.90;;;;;;4941558;29;20537;-73
2023/12/20 02:00:37;;;;;;;4.53;4.03;;;4.70;99.90;;;;;;4941164;29;20666;-74
2023/12/20 02:03:04;;;;;;;4.37;3.80;;;4.70;99.90;;;;;;4941491;29;20202;-75
2023/12/20 02:05:32;;;;;;;4.77;4.00;;;4.60;99.90;;;;;;4941464;29;20204;-75
2023/12/20 02:07:59;;;;;;;4.03;3.50;;;4.60;99.90;;;;;;4941208;29;20221;-76
2023/12/20 02:10:26;;;;;;;4.47;3.70;;;4.50;99.90;;;;;;4941687;29;20209;-78
2023/12/20 02:12:52;;;;;;;4.03;3.30;;;4.40;99.90;;;;;;4941373;29;20589;-79
2023/12/20 02:15:19;;;;;;;4.00;2.93;;;4.30;99.90;;;;;;4941372;29;20269;-78
2023/12/20 02:17:48;;;;;;;5.93;3.43;;;4.30;99.90;;;;;;4943413;29;20209;-79
2023/12/20 02:20:14;;;;;;;3.63;2.97;;;4.20;99.90;;;;;;4941406;29;20308;-80
2023/12/20 02:22:42;;;;;;;2.60;2.30;;;4.10;99.90;;;;;;4938343;29;20201;-80
2023/12/20 02:25:09;;;;;;;3.63;2.80;;;4.10;99.90;;;;;;4938854;29;20205;-83
2023/12/20 02:27:36;;;;;;;2.77;2.40;;;4.00;99.90;;;;;;4938808;29;20273;-81
2023/12/20 02:30:03;;;;;;;3.00;2.50;;;3.90;99.90;;;;;;4938256;29;20209;-84
2023/12/20 02:32:30;;;;;;;2.93;2.50;;;3.90;99.90;;;;;;4938488;29;20205;-83
2023/12/20 02:34:57;;;;;;;2.40;2.13;;;3.90;99.90;;;;;;4938307;29;20209;-84
2023/12/20 02:37:24;;;;;;;2.53;2.33;;;3.90;99.90;;;;;;4938566;29;20618;-88
2023/12/20 02:39:52;;;;;;;2.50;2.10;;;3.90;99.90;;;;;;4939567;29;20213;-88
2023/12/20 02:42:18;;;;;;;2.60;2.40;;;3.80;99.90;;;;;;4939361;29;20252;-88
2023/12/20 02:44:45;;;;;;;2.80;2.20;;;3.80;99.90;;;;;;4939714;29;20265;-90
2023/12/20 02:47:12;;;;;;;5.53;2.30;;;3.80;99.90;;;;;;4939634;29;20212;-85
2023/12/20 02:49:38;;;;;;;2.20;2.00;;;3.80;99.90;;;;;;4938634;29;20244;-84
2023/12/20 02:52:06;;;;;;;2.10;1.90;;;3.80;99.90;;;;;;4938817;29;20324;-85
2023/12/20 02:54:32;;;;;;;2.00;1.80;;;3.80;99.90;;;;;;4939226;29;20205;-85
2023/12/20 02:57:00;;;;;;;2.27;2.07;;;3.80;99.90;;;;;;4938514;29;20212;-83
2023/12/20 02:59:27;;;;;;;2.10;1.90;;;3.70;99.90;;;;;;4938226;29;20626;-85
2023/12/20 03:01:53;;;;;;;2.20;2.00;;;3.70;99.90;;;;;;4938263;29;20217;-83
2023/12/20 03:04:20;;;;;;;2.37;2.10;;;3.80;99.90;;;;;;4937696;29;20269;-82
2023/12/20 03:06:47;;;;;;;2.67;2.30;;;3.80;99.90;;;;;;4938034;29;20256;-86
2023/12/20 03:09:13;;;;;;;2.30;2.10;;;3.80;99.90;;;;;;4938856;29;20229;-88
2023/12/20 03:11:40;;;;;;;3.27;2.40;;;3.80;99.90;;;;;;4938799;29;20248;-86
2023/12/20 03:14:08;;;;;;;2.53;2.33;;;3.80;99.90;;;;;;4938602;29;20208;-87
2023/12/20 03:16:35;;;;;;;3.10;2.80;;;3.80;99.90;;;;;;4938842;29;20205;-86
2023/12/20 03:19:01;;;;;;;3.00;2.67;;;3.80;99.90;;;;;;4938711;29;20607;-88
2023/12/20 03:21:28;;;;;;;3.37;2.80;;;3.80;99.90;;;;;;4939338;29;20205;-87
2023/12/20 03:23:54;;;;;;;3.53;3.10;;;3.80;99.90;;;;;;4939086;29;20260;-87
2023/12/20 03:26:22;;;;;;;3.47;3.17;;;3.80;99.90;;;;;;4922147;29;20197;-87
2023/12/20 03:28:49;;;;;;;4.30;2.83;;;3.80;99.90;;;;;;4938833;29;20229;-87
2023/12/20 03:31:17;;;;;;;3.43;3.13;;;3.80;99.90;;;;;;4937659;29;20269;-86
2023/12/20 03:33:44;;;;;;;4.00;3.60;;;3.80;99.90;;;;;;4938439;29;20279;-86
2023/12/20 03:36:10;;;;;;;3.50;2.83;;;3.80;99.90;;;;;;4938458;29;20206;-85
2023/12/20 03:38:37;;;;;;;3.47;2.80;;;3.80;99.90;;;;;;4938437;29;20626;-84
2023/12/20 03:41:04;;;;;;;3.63;2.90;;;3.80;99.90;;;;;;4937937;29;20205;-85
2023/12/20 03:43:31;;;;;;;4.17;3.37;;;3.80;99.90;;;;;;4938155;29;20676;-84
2023/12/20 03:45:58;;;;;;;3.67;3.27;;;3.80;99.90;;;;;;4938079;29;20264;-84
2023/12/20 03:48:26;;;;;;;3.73;3.33;;;3.80;99.90;;;;;;4937660;29;20688;-86
2023/12/20 03:50:53;;;;;;;4.07;3.67;;;3.80;99.90;;;;;;4938413;29;20267;-87
2023/12/20 03:53:19;;;;;;;3.77;3.40;;;3.80;99.90;;;;;;4938307;29;20276;-86
2023/12/20 03:55:46;;;;;;;4.20;3.80;;;3.70;99.90;;;;;;4938228;29;20204;-86
2023/12/20 03:58:13;;;;;;;4.20;3.80;;;3.70;99.90;;;;;;4940821;29;20213;-86
2023/12/20 04:00:40;;;;;;;4.80;3.77;;;3.70;99.90;;;;;;4945825;29;20208;-85
2023/12/20 04:03:06;;;;;;;4.60;3.70;;;3.70;99.90;;;;;;4937463;29;20256;-84
2023/12/20 04:05:34;;;;;;;4.20;3.80;;;3.70;99.90;;;;;;4937505;29;20606;-84
2023/12/20 04:08:03;;;;;;;4.30;3.90;;;3.70;99.90;;;;;;4936838;29;20704;-83
2023/12/20 04:10:29;;;;;;;3.97;3.57;;;3.70;99.90;;;;;;4936718;29;20216;-82
2023/12/20 04:12:56;;;;;;;4.20;3.70;;;3.70;99.90;;;;;;4939169;29;20661;-83
2023/12/20 04:15:23;;;;;;;3.93;3.53;;;3.70;99.90;;;;;;4936697;29;20205;-84
2023/12/20 04:17:49;;;;;;;3.50;3.20;;;3.70;99.90;;;;;;4919956;29;20693;-84
2023/12/20 04:20:16;;;;;;;3.37;3.07;;;3.70;99.90;;;;;;4936681;29;20261;-82
2023/12/20 04:22:44;;;;;;;3.50;3.20;;;3.60;99.90;;;;;;4936773;29;20288;-83
2023/12/20 04:25:10;;;;;;;3.83;3.30;;;3.60;99.90;;;;;;4936383;29;20536;-81
2023/12/20 04:27:37;;;;;;;4.90;2.90;;;3.60;99.90;;;;;;4936102;29;20213;-81
2023/12/20 04:30:04;;;;;;;3.60;3.07;;;3.60;99.90;;;;;;4940965;29;20228;-81
2023/12/20 04:32:31;;;;;;;3.17;2.87;;;3.50;99.90;;;;;;4936741;29;20255;-84
2023/12/20 04:34:58;;;;;;;3.80;3.43;;;3.60;99.90;;;;;;4937006;29;20204;-83
2023/12/20 04:37:25;;;;;;;4.43;3.03;;;3.60;99.90;;;;;;4935937;29;20206;-82
2023/12/20 04:39:53;;;;;;;3.03;2.80;;;3.50;99.90;;;;;;4936215;29;20201;-84
2023/12/20 04:42:19;;;;;;;3.10;2.90;;;3.50;99.90;;;;;;4936187;29;20240;-84
2023/12/20 04:44:46;;;;;;;3.20;2.90;;;3.50;99.90;;;;;;4926978;29;20279;-85
2023/12/20 04:47:12;;;;;;;3.13;2.73;;;3.50;99.90;;;;;;4955473;28;20255;-81
2023/12/20 04:49:39;;;;;;;3.90;3.40;;;3.50;99.90;;;;;;4954936;29;20707;-81
2023/12/20 04:52:06;;;;;;;3.30;3.00;;;3.50;99.90;;;;;;4955228;29;20208;-83
2023/12/20 04:54:33;;;;;;;3.73;3.33;;;3.50;99.90;;;;;;4954978;29;20298;-82
2023/12/20 04:57:01;;;;;;;4.57;3.07;;;3.50;99.90;;;;;;4955242;29;20665;-82
2023/12/20 04:59:27;;;;;;;3.40;3.10;;;3.40;99.90;;;;;;4954938;29;20664;-83
2023/12/20 05:01:54;;;;;;;4.50;3.33;;;3.40;99.90;;;;;;4954948;29;20206;-81
2023/12/20 05:04:21;;;;;;;2.87;2.67;;;3.50;99.90;;;;;;4954846;29;20238;-81
2023/12/20 05:06:49;;;;;;;3.40;3.10;;;3.40;99.90;;;;;;4954754;29;20293;-81
2023/12/20 05:09:16;;;;;;;3.43;2.93;;;3.40;99.90;;;;;;4954933;29;20657;-81
2023/12/20 05:11:42;;;;;;;3.10;2.80;;;3.40;99.90;;;;;;4955071;28;20617;-82
2023/12/20 05:14:10;;;;;;;3.60;3.30;;;3.30;99.90;;;;;;4954716;29;20206;-82
2023/12/20 05:16:37;;;;;;;3.80;3.50;;;3.30;99.90;;;;;;4954818;29;20209;-83
2023/12/20 05:19:06;;;;;;;4.13;3.23;;;3.30;99.90;;;;;;4954883;29;20249;-83
2023/12/20 05:21:33;;;;;;;3.70;3.33;;;3.30;99.90;;;;;;4954919;29;20207;-82
2023/12/20 05:24:00;;;;;;;3.60;3.30;;;3.30;99.90;;;;;;4954674;29;20234;-80
2023/12/20 05:26:26;;;;;;;4.07;3.67;;;3.30;99.90;;;;;;4955121;29;20294;-81
2023/12/20 05:28:53;;;;;;;4.10;3.70;;;3.30;99.90;;;;;;4954909;29;20230;-82
2023/12/20 05:31:21;;;;;;;4.57;3.73;;;3.30;99.90;;;;;;4954737;29;20293;-81
2023/12/20 05:33:48;;;;;;;3.83;3.53;;;3.30;99.90;;;;;;4954675;29;20263;-82
2023/12/20 05:36:15;;;;;;;5.53;4.30;;;3.30;99.90;;;;;;4954404;29;20706;-81
2023/12/20 05:38:41;;;;;;;4.67;4.10;;;3.30;99.90;;;;;;4954598;29;20309;-81
2023/12/20 05:41:08;;;;;;;5.33;4.40;;;3.30;99.90;;;;;;4954460;29;20206;-82
2023/12/20 05:43:35;;;;;;;5.00;4.50;;;3.30;99.90;;;;;;4954917;29;20204;-82
2023/12/20 05:46:01;;;;;;;4.67;4.20;;;3.30;99.90;;;;;;4954818;29;20239;-83
2023/12/20 05:48:29;;;;;;;5.00;4.50;;;3.30;99.90;;;;;;4961114;29;20222;-82
2023/12/20 05:50:56;;;;;;;6.10;5.50;;;3.30;99.90;;;;;;4954444;29;20258;-83
2023/12/20 05:53:23;;;;;;;7.93;5.87;;;3.40;99.90;;;;;;4954580;28;20236;-81
2023/12/20 05:55:49;;;;;;;11.57;8.47;;;3.40;99.90;;;;;;4957027;29;20262;-81
2023/12/20 05:58:16;;;;;;;7.37;6.37;;;3.40;99.90;;;;;;4958167;29;20228;-82
2023/12/20 06:00:43;;;;;;;9.73;8.00;;;3.50;99.90;;;;;;4957851;29;20613;-81
2023/12/20 06:03:09;;;;;;;7.40;6.70;;;3.50;99.90;;;;;;4957602;29;20585;-82
2023/12/20 06:05:37;;;;;;;7.77;6.33;;;3.50;99.90;;;;;;4957993;29;20664;-81
2023/12/20 06:08:04;;;;;;;7.80;7.00;;;3.50;99.90;;;;;;4958058;29;20207;-82
2023/12/20 06:10:31;;;;;;;10.20;7.63;;;3.50;99.90;;;;;;4957726;29;20280;-81
2023/12/20 06:12:58;;;;;;;9.07;7.57;;;3.60;99.90;;;;;;4957867;29;20208;-81
2023/12/20 06:15:25;;;;;;;8.57;7.60;;;3.50;99.90;;;;;;4957702;29;20646;-81
2023/12/20 06:17:52;;;;;;;9.70;8.50;;;3.60;99.90;;;;;;4958089;29;20212;-82
2023/12/20 06:20:18;;;;;;;10.47;8.90;;;3.60;99.90;;;;;;4957689;29;20203;-82
2023/12/20 06:22:46;;;;;;;10.20;9.00;;;3.60;99.90;;;;;;4957772;29;20211;-81
2023/12/20 06:25:13;;;;;;;11.37;8.27;;;3.60;99.90;;;;;;4957274;29;20265;-81
2023/12/20 06:27:41;;;;;;;10.30;9.03;;;3.70;99.90;;;;;;4957576;29;20259;-81
2023/12/20 06:30:09;;;;;;;11.80;9.83;;;3.60;99.90;;;;;;4957542;29;20231;-79
2023/12/20 06:32:37;;;;;;;11.47;9.27;;;3.70;99.90;;;;;;4957446;29;20193;-81
2023/12/20 06:35:05;;;;;;;13.03;10.27;;;3.60;99.90;;;;;;4957622;29;20215;-81
2023/12/20 06:37:31;;;;;;;11.63;9.23;;;3.60;99.90;;;;;;4957387;29;20207;-81
2023/12/20 06:39:59;;;;;;;9.13;8.07;;;3.70;99.90;;;;;;4957163;29;20283;-82
2023/12/20 06:42:26;;;;;;;10.67;9.03;;;3.70;99.90;;;;;;4956857;29;20232;-83
2023/12/20 06:44:53;;;;;;;9.93;8.43;;;3.70;99.90;;;;;;4957405;29;20232;-83
2023/12/20 06:47:20;;;;;;;12.70;8.93;;;3.70;99.90;;;;;;4956824;29;20259;-82
2023/12/20 06:49:46;;;;;;;10.17;8.07;;;3.70;99.90;;;;;;4957306;29;20256;-82
2023/12/20 06:52:13;;;;;;;10.10;8.20;;;3.70;99.90;;;;;;4956999;29;20201;-82
2023/12/20 06:54:40;;;;;;;10.17;7.57;;;3.80;99.90;;;;;;4957149;29;20211;-82
2023/12/20 06:57:08;;;;;;;9.60;8.37;;;3.80;99.90;;;;;;4957033;29;20224;-83
2023/12/20 06:59:39;;;;;;;12.27;8.53;;;3.80;99.90;;;;;;4956960;29;20211;-83
2023/12/20 07:02:06;;;;;;;8.80;7.87;;;3.80;99.90;;;;;;4956894;29;20656;-82
2023/12/20 07:04:33;;;;;;;8.90;7.57;;;3.80;99.90;;;;;;4956829;29;20207;-83
2023/12/20 07:07:00;;;;;;;10.47;8.70;;;3.80;99.90;;;;;;4956659;28;20208;-83
2023/12/20 07:09:27;;;;;;;8.83;7.37;;;3.90;99.90;;;;;;4956707;29;20221;-83
2023/12/20 07:11:53;;;;;;;10.30;7.30;;;3.90;99.90;;;;;;4956604;29;20274;-84
2023/12/20 07:14:21;;;;;;;9.33;7.77;;;3.90;99.90;;;;;;4956691;29;20200;-82
2023/12/20 07:16:48;;;;;;;10.10;8.17;;;3.90;99.90;;;;;;4956379;29;20209;-82
2023/12/20 07:19:15;;;;;;;11.93;8.13;;;3.90;99.90;;;;;;4956442;29;20610;-82
2023/12/20 07:21:41;;;;;;;9.93;8.47;;;4.00;99.90;;;;;;4956433;29;20200;-82
2023/12/20 07:24:08;;;;;;;10.20;8.07;;;4.00;99.90;;;;;;4956413;29;20210;-84
2023/12/20 07:26:37;;;;;;;12.17;9.43;;;4.00;99.90;;;;;;4956520;29;20207;-83
2023/12/20 07:29:04;;;;;;;12.20;9.40;;;3.90;99.90;;;;;;4956188;29;20260;-83
2023/12/20 07:31:32;;;;;;;11.50;9.07;;;4.00;99.90;;;;;;4956692;29;20271;-81
2023/12/20 07:33:58;;;;;;;12.57;10.00;;;4.10;99.90;;;;;;4956461;29;20205;-85
2023/12/20 07:36:25;;;;;;;15.20;10.43;;;4.10;99.90;;;;;;4956107;29;20248;-81
2023/12/20 07:38:52;;;;;;;13.00;10.53;;;4.10;99.90;;;;;;4956346;29;20651;-82
2023/12/20 07:41:21;;;;;;;14.27;10.93;;;4.10;99.90;;;;;;4956387;29;20709;-83
2023/12/20 07:43:47;;;;;;;15.20;11.20;;;4.10;99.90;;;;;;4956342;29;20296;-84
2023/12/20 07:46:14;;;;;;;13.73;11.20;;;4.10;99.90;;;;;;4956159;29;20221;-80
2023/12/20 07:48:42;;;;;;;13.30;10.57;;;4.10;99.90;;;;;;4955970;29;20209;-82
2023/12/20 07:51:09;;;;;;;14.77;11.70;;;4.10;99.90;;;;;;4955548;29;20746;-82
2023/12/20 07:53:37;;;;;;;14.70;11.60;;;4.10;99.90;;;;;;4956250;29;20299;-83
2023/12/20 07:56:14;;;;;;;15.23;11.50;;;4.10;99.90;;;;;;4956596;29;20211;-78
2023/12/20 07:58:40;;;;;;;12.67;10.40;;;4.10;99.90;;;;;;4944791;29;20189;-81
2023/12/20 08:01:07;;;;;;;13.07;10.57;;;4.20;99.90;;;;;;4937233;29;20205;-83
2023/12/20 08:03:33;;;;;;;13.90;11.20;;;4.10;99.90;;;;;;4938820;29;20216;-76
2023/12/20 08:06:03;;;;;;;18.80;11.10;;;4.10;99.90;;;;;;4938371;29;20241;-86
2023/12/20 08:08:29;;;;;;;14.93;10.73;;;4.10;99.90;;;;;;4938098;29;20682;-88
2023/12/20 08:10:57;;;;;;;12.30;10.00;;;4.10;99.90;;;;;;4937717;29;20232;-88
2023/12/20 08:13:25;;;;;;;11.60;9.50;;;4.20;99.90;;;;;;4939103;29;20665;-87
2023/12/20 08:15:52;;;;;;;11.63;9.77;;;4.20;99.90;;;;;;4938620;29;20212;-86
2023/12/20 08:18:19;;;;;;;12.93;11.00;;;4.20;99.90;;;;;;4938827;29;20213;-88
2023/12/20 08:20:47;;;;;;;12.33;10.40;;;4.30;99.90;;;;;;4937925;29;20216;-83
2023/12/20 08:23:16;;;;;;;10.40;9.17;;;4.30;99.90;;;;;;4936578;29;20213;-80
2023/12/20 08:25:43;;;;;;;11.37;9.87;;;4.30;99.90;;;;;;4936624;29;20213;-83
2023/12/20 08:28:09;;;;;;;9.00;8.10;;;4.30;99.90;;;;;;4920207;29;20264;-84
2023/12/20 08:30:36;;;;;;;8.77;7.87;;;4.40;99.90;;;;;;4936487;29;20642;-81
2023/12/20 08:33:03;;;;;;;8.83;7.80;;;4.40;99.90;;;;;;4937437;29;20205;-84
2023/12/20 08:35:29;;;;;;;8.47;7.60;;;4.40;99.90;;;;;;4938497;29;20260;-86
2023/12/20 08:37:57;;;;;;;7.70;6.90;;;4.40;99.90;;;;;;4938796;29;20241;-84
2023/12/20 08:40:25;;;;;;;8.17;6.57;;;4.40;99.90;;;;;;4938355;29;20205;-83
2023/12/20 08:42:52;;;;;;;8.40;7.43;;;4.50;99.90;;;;;;4950327;29;20232;-80
2023/12/20 08:45:18;;;;;;;8.47;6.93;;;4.60;99.90;;;;;;4955682;29;20205;-80
2023/12/20 08:47:45;;;;;;;7.60;6.47;;;4.70;99.90;;;;;;4955347;29;20256;-81
2023/12/20 08:50:12;;;;;;;7.03;5.93;;;4.70;99.90;;;;;;4955502;29;20231;-80
2023/12/20 08:52:39;;;;;;;5.23;4.73;;;4.70;99.90;;;;;;4955814;29;20553;-81
2023/12/20 08:55:06;;;;;;;7.27;5.60;;;4.70;99.90;;;;;;4955731;29;20204;-81
2023/12/20 08:57:34;;;;;;;6.30;4.40;;;4.80;99.90;;;;;;4955304;29;20205;-74
2023/12/20 09:00:01;;;;;;;4.77;4.27;;;4.70;99.90;;;;;;4954861;29;20657;-76
2023/12/20 09:02:28;;;;;;;5.40;4.23;;;4.70;99.90;;;;;;4954813;29;20201;-76
2023/12/20 09:04:55;;;;;;;4.40;3.63;;;4.80;99.90;;;;;;4954629;29;20205;-78
2023/12/20 09:07:23;;;;;;;3.57;3.00;;;4.80;99.90;;;;;;4954796;29;20201;-78
2023/12/20 09:09:50;;;;;;;3.37;2.77;;;4.70;99.90;;;;;;4954671;29;20287;-77
2023/12/20 09:12:18;;;;;;;3.17;2.80;;;4.80;99.90;;;;;;4954917;29;20209;-83
2023/12/20 09:14:46;;;;;;;3.70;3.00;;;4.70;99.90;;;;;;4955398;29;20201;-76
2023/12/20 09:17:13;;;;;;;4.07;2.90;;;4.80;99.90;;;;;;4955091;29;20201;-76
2023/12/20 09:19:39;;;;;;;3.93;2.50;;;4.70;99.90;;;;;;4958961;29;20263;-75
2023/12/20 09:22:07;;;;;;;3.20;2.30;;;4.80;99.90;;;;;;4954833;29;20288;-75
2023/12/20 09:24:33;;;;;;;3.77;2.50;;;4.80;99.90;;;;;;4954965;29;20212;-75
2023/12/20 09:27:00;;;;;;;5.20;2.60;;;4.80;99.90;;;;;;4954581;29;20252;-74
2023/12/20 09:29:27;;;;;;;3.77;2.13;;;4.70;99.90;;;;;;4956590;28;20200;-74
2023/12/20 09:31:55;;;;;;;6.00;2.50;;;4.80;99.90;;;;;;4958249;29;20278;-74
2023/12/20 09:34:22;;;;;;;6.27;2.37;;;4.70;99.90;;;;;;4958381;29;20668;-73
2023/12/20 09:36:48;;;;;;;3.00;2.10;;;4.80;99.90;;;;;;4958574;29;20201;-74
2023/12/20 09:39:16;;;;;;;3.63;2.20;;;4.70;99.90;;;;;;4958364;29;20217;-75
2023/12/20 09:41:46;;;;;;;6.83;2.37;;;4.80;99.90;;;;;;4951434;29;20237;-74
2023/12/20 09:44:15;;;;;;;5.20;2.30;;;4.90;99.90;;;;;;4939176;29;20204;-74
2023/12/20 09:46:45;;;;;;;3.87;2.57;;;5.00;99.90;;;;;;4938806;29;20201;-74
2023/12/20 09:49:14;;;;;;;4.57;2.63;;;5.10;99.90;;;;;;4938972;29;20225;-74
2023/12/20 09:51:41;;;;;;;5.57;2.73;;;5.20;99.90;;;;;;4938823;29;20272;-74
2023/12/20 09:54:08;;;;;;;7.83;2.40;;;5.30;99.90;;;;;;4938929;29;20224;-74
2023/12/20 09:56:35;;;;;;;7.33;2.57;;;5.30;99.90;;;;;;4938854;29;20339;-74
2023/12/20 09:59:01;;;;;;;4.13;2.27;;;5.50;99.90;;;;;;4938633;29;20273;-74
2023/12/20 10:01:29;;;;;;;4.53;2.30;;;5.60;99.90;;;;;;4938936;29;20205;-74
2023/12/20 10:03:56;;;;;;;3.23;2.33;;;5.90;99.90;;;;;;4938605;29;20206;-73
2023/12/20 10:06:24;;;;;;;6.10;2.40;;;6.10;99.90;;;;;;4938673;29;20261;-74
2023/12/20 10:08:51;;;;;;;4.63;2.40;;;6.30;99.90;;;;;;4938360;29;20253;-75
2023/12/20 10:11:17;;;;;;;3.93;2.33;;;6.20;99.90;;;;;;4938325;29;20630;-74
2023/12/20 10:13:44;;;;;;;5.93;2.50;;;6.40;99.90;;;;;;4938529;29;20202;-75
2023/12/20 10:16:11;;;;;;;5.83;2.33;;;6.40;99.90;;;;;;4938351;29;20688;-75
2023/12/20 10:18:37;;;;;;;4.27;2.40;;;6.30;99.90;;;;;;4938402;29;20208;-75
2023/12/20 10:21:05;;;;;;;6.90;3.10;;;5.90;99.90;;;;;;4938399;29;20265;-74
2023/12/20 10:23:33;;;;;;;5.33;3.23;;;5.60;99.90;;;;;;4938507;29;20197;-75
2023/12/20 10:26:00;;;;;;;4.17;2.80;;;5.50;99.90;;;;;;4938139;29;20205;-75
2023/12/20 10:28:27;;;;;;;6.40;2.30;;;5.40;99.90;;;;;;4938474;29;20237;-74
2023/12/20 10:30:56;;;;;;;5.07;3.40;;;5.30;99.90;;;;;;4938194;29;20236;-74
2023/12/20 10:33:26;;;;;;;8.33;4.63;;;5.10;99.90;;;;;;4938275;29;20202;-74
2023/12/20 10:35:53;;;;;;;9.63;4.57;;;5.10;99.90;;;;;;4938030;29;20659;-71
2023/12/20 10:38:20;;;;;;;7.13;4.47;;;5.10;99.90;;;;;;4937031;29;20709;-72
2023/12/20 10:40:48;;;;;;;5.37;4.00;;;5.00;99.90;;;;;;4937125;29;20205;-73
2023/12/20 10:43:16;;;;;;;8.93;6.20;;;4.90;99.90;;;;;;4956306;29;20233;-75
2023/12/20 10:45:43;;;;;;;6.43;3.93;;;4.90;99.90;;;;;;4956967;29;20294;-75
2023/12/20 10:48:11;;;;;;;7.70;4.20;;;4.90;99.90;;;;;;4956868;29;20209;-72
2023/12/20 10:50:39;;;;;;;5.63;3.90;;;4.80;99.90;;;;;;4956742;29;20239;-74
2023/12/20 10:53:08;;;;;;;6.30;4.00;;;4.80;99.90;;;;;;4956792;29;20201;-74
2023/12/20 10:55:35;;;;;;;6.60;4.13;;;4.80;99.90;;;;;;4956611;29;20209;-74
2023/12/20 10:58:08;;;;;;;6.77;3.70;;;4.80;99.90;;;;;;4956622;29;20684;-74
2023/12/20 11:00:39;;;;;;;5.90;3.60;;;4.80;99.90;;;;;;4956808;29;20251;-74
2023/12/20 11:03:09;;;;;;;5.10;3.57;;;4.90;99.90;;;;;;4956619;29;20646;-72
2023/12/20 11:05:54;;;;;;;4.47;3.43;;;4.90;99.90;;;;;;4956599;29;20201;-72
2023/12/20 11:08:27;;;;;;;8.37;5.20;;;4.80;99.90;;;;;;4956564;29;20562;-72
2023/12/20 11:11:02;;;;;;;7.17;3.83;;;4.90;99.90;;;;;;4956633;29;20228;-72
2023/12/20 11:13:33;;;;;;;6.63;5.23;;;4.80;99.90;;;;;;4956416;29;20205;-72
2023/12/20 11:16:00;;;;;;;8.63;4.57;;;4.80;99.90;;;;;;4956367;29;20208;-72
2023/12/20 11:18:30;;;;;;;5.40;3.50;;;4.70;99.90;;;;;;4956656;29;20205;-74
2023/12/20 11:21:01;;;;;;;9.77;5.17;;;4.80;99.90;;;;;;4956494;29;20208;-73
2023/12/20 11:23:27;;;;;;;6.63;4.77;;;4.90;99.90;;;;;;4956264;29;20208;-72
2023/12/20 11:25:58;;;;;;;9.73;3.70;;;4.90;99.90;;;;;;4956149;29;20204;-73
2023/12/20 11:28:26;;;;;;;7.33;4.80;;;4.90;99.90;;;;;;4956125;29;20208;-72
2023/12/20 11:30:56;;;;;;;7.27;4.93;;;4.90;99.90;;;;;;4956292;29;20209;-72
2023/12/20 11:33:24;;;;;;;9.87;4.80;;;5.00;99.90;;;;;;4956155;29;20574;-72
2023/12/20 11:35:50;;;;;;;7.63;3.60;;;4.90;99.90;;;;;;4956193;29;20454;-72
2023/12/20 11:38:17;;;;;;;7.83;4.37;;;4.80;99.90;;;;;;4956025;29;20212;-72
2023/12/20 11:40:45;;;;;;;7.43;3.77;;;4.80;99.90;;;;;;4956218;29;20253;-72
2023/12/20 11:43:11;;;;;;;4.90;4.03;;;4.70;99.90;;;;;;4955360;29;20236;-72
2023/12/20 11:45:38;;;;;;;6.53;3.67;;;4.70;99.90;;;;;;4956061;29;20215;-72
2023/12/20 11:48:08;;;;;;;5.37;3.50;;;4.80;99.90;;;;;;4955831;29;20633;-72
2023/12/20 11:50:34;;;;;;;9.83;3.93;;;4.70;99.90;;;;;;4955737;29;20350;-72
2023/12/20 11:53:01;;;;;;;6.47;4.53;;;4.70;99.90;;;;;;4954638;28;20689;-72
2023/12/20 11:55:28;;;;;;;6.17;4.07;;;4.70;99.90;;;;;;4955766;29;20296;-72
2023/12/20 11:57:54;;;;;;;10.53;3.73;;;4.80;99.90;;;;;;4955417;29;20663;-72
2023/12/20 12:00:21;;;;;;;4.83;3.53;;;4.70;99.90;;;;;;4955464;29;20236;-72
2023/12/20 12:02:59;;;;;;;8.83;3.70;;;4.70;99.90;;;;;;4955580;29;20256;-73
2023/12/20 12:05:27;;;;;;;8.10;3.80;;;4.80;99.90;;;;;;4955323;29;20208;-73
2023/12/20 12:07:54;;;;;;;6.07;3.60;;;4.80;99.90;;;;;;4955176;29;20590;-73
2023/12/20 12:10:20;;;;;;;6.87;3.97;;;4.90;99.90;;;;;;4955200;29;20208;-73
2023/12/20 12:12:47;;;;;;;4.53;3.17;;;4.90;99.90;;;;;;4955303;29;20653;-72
2023/12/20 12:15:15;;;;;;;4.63;3.50;;;4.90;99.90;;;;;;4954019;29;20196;-73
2023/12/20 12:17:42;;;;;;;6.73;3.23;;;4.80;99.90;;;;;;4955252;29;20209;-72
2023/12/20 12:20:09;;;;;;;8.57;4.20;;;4.80;99.90;;;;;;4955198;29;20550;-71
2023/12/20 12:22:37;;;;;;;7.17;3.93;;;4.90;99.90;;;;;;4947248;29;20666;-73
2023/12/20 12:25:11;;;;;;;6.73;3.87;;;4.90;99.90;;;;;;4955033;29;20249;-71
2023/12/20 12:27:40;;;;;;;6.73;3.53;;;4.90;99.90;;;;;;4955034;29;20679;-73
2023/12/20 12:30:08;;;;;;;6.07;2.93;;;5.00;99.90;;;;;;4954969;29;20209;-73
2023/12/20 12:32:34;;;;;;;5.13;3.00;;;4.90;99.90;;;;;;4954907;29;20681;-72
2023/12/20 12:35:03;;;;;;;7.33;4.40;;;4.80;99.90;;;;;;4954780;29;20209;-72
2023/12/20 12:37:30;;;;;;;17.73;7.00;;;4.80;99.90;;;;;;4943788;29;20209;-71
2023/12/20 12:39:58;;;;;;;6.57;3.87;;;4.70;99.90;;;;;;4935466;29;20194;-73
2023/12/20 12:42:28;;;;;;;3.20;2.90;;;4.70;99.90;;;;;;4947390;29;20241;-73
2023/12/20 12:44:55;;;;;;;5.27;2.87;;;4.70;99.90;;;;;;4954784;29;20205;-71
2023/12/20 12:47:21;;;;;;;6.23;3.33;;;4.60;99.90;;;;;;4954641;29;20653;-75
2023/12/20 12:49:48;;;;;;;4.60;3.10;;;4.60;99.90;;;;;;4955586;29;20232;-71
2023/12/20 12:52:15;;;;;;;7.63;3.53;;;4.60;99.90;;;;;;4954643;29;20234;-75
2023/12/20 12:54:42;;;;;;;8.50;3.27;;;4.60;99.90;;;;;;4951107;29;20211;-75